메인 페이지
METAR-TAF:

METAR-TAF

공항 :

플로리아노폴리스, 산타카타리나, 브라질

위도: 27-40S, 경도: 048-33W, 고도: 5m

현재 날씨관측

예보는 54분 전, 02:00시(UTC)에 발표되었습니다.
남서2kt
온도 25°C
습도 74%
기압 1015 hPa
시정 10km 이상
고도 3000ft 상공 구름 보통
고도 3500ft 상공 구름 조금, 타워링 적운.

METAR: SBFL 130200Z 22002KT 9999 SCT030 FEW035TCU 25/20 Q1015 RETS

시각: 00:54 (02:54 UTC)

예보

예보는 5 시간 39분 전, 21:15시(UTC)에 발표되었습니다.
예보 대상 시간: 13일 00시부터 13일 24시까지 (UTC)
동남동6kt
시정 10km 이상
고도 3000ft 상공 구름 조금
고도 3500ft 상공 구름 조금, 타워링 적운.
전환 중
13일 01시부터 13일 03시까지 (UTC)
고도 3500ft 상공 구름 조금
전환 중
13일 17시부터 13일 19시까지 (UTC)
고도 3500ft 상공 구름 보통
고도 4000ft 상공 구름 조금, 타워링 적운.
전환 중
13일 21시부터 13일 23시까지 (UTC)
고도 3500ft 상공 구름 조금

TAF: SBFL 122115Z 1300/1324 12006KT 9999 FEW030 FEW035TCU TN23/1308Z TX30/1316Z BECMG 1301/1303 FEW035 BECMG 1317/1319 SCT035 FEW040TCU BECMG 1321/1323 FEW035 RMK PDW

4,000개 이상의 공항 관측 자료 및 예보 (METAR 및 TAF 보고).

지도상에서 검색 가능한 기상관측소가 노란 점과 빨간 점으로 표시되어 있습니다.

기상관측소 명을 보려면 표시 위로 마우스를 이동하세요.

날씨 관측과 예보를 보려면 클릭하세요.

지도 변경 : 확대하려면 엑스 표시가 있는 녹색 버튼, 축소하려면 빼기 표시가 있는 녹색 버튼, 다음 페이지의 지도를 보려면 녹색 화살표를 클릭하세요.


METAR-TAF: